sensor_id;sensor_type;location;lat;lon;timestamp;temperature;humidity
31263;DHT22;17892;52.080;9.006;2023-03-01T00:02:00;-3.40;99.90
31263;DHT22;17892;52.080;9.006;2023-03-01T00:04:26;-3.40;99.90
31263;DHT22;17892;52.080;9.006;2023-03-01T00:06:53;-3.40;99.90
31263;DHT22;17892;52.080;9.006;2023-03-01T00:09:19;-3.50;99.90
31263;DHT22;17892;52.080;9.006;2023-03-01T00:11:45;-3.50;99.90
31263;DHT22;17892;52.080;9.006;2023-03-01T00:14:11;-3.50;99.90
31263;DHT22;17892;52.080;9.006;2023-03-01T00:16:40;-3.50;99.90
31263;DHT22;17892;52.080;9.006;2023-03-01T00:19:09;-3.50;99.90
31263;DHT22;17892;52.080;9.006;2023-03-01T00:21:37;-3.60;99.90
31263;DHT22;17892;52.080;9.006;2023-03-01T00:24:03;-3.60;99.90
31263;DHT22;17892;52.080;9.006;2023-03-01T00:26:29;-3.60;99.90
31263;DHT22;17892;52.080;9.006;2023-03-01T00:28:57;-3.60;99.90
31263;DHT22;17892;52.080;9.006;2023-03-01T00:31:26;-3.60;99.90
31263;DHT22;17892;52.080;9.006;2023-03-01T00:33:54;-3.60;99.90
31263;DHT22;17892;52.080;9.006;2023-03-01T00:36:25;-3.60;99.90
31263;DHT22;17892;52.080;9.006;2023-03-01T00:38:52;-3.60;99.90
31263;DHT22;17892;52.080;9.006;2023-03-01T00:41:19;-3.60;99.90
31263;DHT22;17892;52.080;9.006;2023-03-01T00:43:45;-3.60;99.90
31263;DHT22;17892;52.080;9.006;2023-03-01T00:46:14;-3.60;99.90
31263;DHT22;17892;52.080;9.006;2023-03-01T00:48:41;-3.60;99.90
31263;DHT22;17892;52.080;9.006;2023-03-01T00:53:38;-3.60;99.90
31263;DHT22;17892;52.080;9.006;2023-03-01T00:56:07;-3.60;99.90
31263;DHT22;17892;52.080;9.006;2023-03-01T00:58:34;-3.60;99.90
31263;DHT22;17892;52.080;9.006;2023-03-01T01:01:00;-3.70;99.90
31263;DHT22;17892;52.080;9.006;2023-03-01T01:03:26;-3.70;99.90
31263;DHT22;17892;52.080;9.006;2023-03-01T01:05:52;-3.70;99.90
31263;DHT22;17892;52.080;9.006;2023-03-01T01:08:19;-3.70;99.90
31263;DHT22;17892;52.080;9.006;2023-03-01T01:10:46;-3.70;99.90
31263;DHT22;17892;52.080;9.006;2023-03-01T01:13:13;-3.70;99.90
31263;DHT22;17892;52.080;9.006;2023-03-01T01:15:39;-3.80;99.90
31263;DHT22;17892;52.080;9.006;2023-03-01T01:18:05;-3.80;99.90
31263;DHT22;17892;52.080;9.006;2023-03-01T01:20:32;-3.80;99.90
31263;DHT22;17892;52.080;9.006;2023-03-01T01:22:58;-3.80;99.90
31263;DHT22;17892;52.080;9.006;2023-03-01T01:25:24;-3.80;99.90
31263;DHT22;17892;52.080;9.006;2023-03-01T01:27:52;-3.90;99.90
31263;DHT22;17892;52.080;9.006;2023-03-01T01:30:18;-3.90;99.90
31263;DHT22;17892;52.080;9.006;2023-03-01T01:32:43;-3.90;99.90
31263;DHT22;17892;52.080;9.006;2023-03-01T01:35:09;-3.90;99.90
31263;DHT22;17892;52.080;9.006;2023-03-01T01:37:35;-3.90;99.90
31263;DHT22;17892;52.080;9.006;2023-03-01T01:40:01;-4.00;99.90
31263;DHT22;17892;52.080;9.006;2023-03-01T01:42:31;-4.00;99.90
31263;DHT22;17892;52.080;9.006;2023-03-01T01:48:02;-3.90;99.90
31263;DHT22;17892;52.080;9.006;2023-03-01T01:50:31;-4.00;99.90
31263;DHT22;17892;52.080;9.006;2023-03-01T01:53:06;-4.00;99.90
31263;DHT22;17892;52.080;9.006;2023-03-01T01:55:41;-4.00;99.90
31263;DHT22;17892;52.080;9.006;2023-03-01T01:58:11;-4.00;99.90
31263;DHT22;17892;52.080;9.006;2023-03-01T02:00:40;-4.10;99.90
31263;DHT22;17892;52.080;9.006;2023-03-01T02:03:18;-4.10;99.90
31263;DHT22;17892;52.080;9.006;2023-03-01T02:08:46;-4.10;99.90
31263;DHT22;17892;52.080;9.006;2023-03-01T02:11:13;-4.20;99.90
31263;DHT22;17892;52.080;9.006;2023-03-01T02:13:42;-4.20;99.90
31263;DHT22;17892;52.080;9.006;2023-03-01T02:16:11;-4.20;99.90
31263;DHT22;17892;52.080;9.006;2023-03-01T02:18:39;-4.20;99.90
31263;DHT22;17892;52.080;9.006;2023-03-01T02:21:20;-4.10;99.90
31263;DHT22;17892;52.080;9.006;2023-03-01T02:23:54;-4.20;99.90
31263;DHT22;17892;52.080;9.006;2023-03-01T02:26:40;-4.30;99.90
31263;DHT22;17892;52.080;9.006;2023-03-01T02:29:10;-4.30;99.90
31263;DHT22;17892;52.080;9.006;2023-03-01T02:31:36;-4.30;99.90
31263;DHT22;17892;52.080;9.006;2023-03-01T02:34:17;-4.30;99.90
31263;DHT22;17892;52.080;9.006;2023-03-01T02:36:47;-4.30;99.90
31263;DHT22;17892;52.080;9.006;2023-03-01T02:39:22;-4.20;99.90
31263;DHT22;17892;52.080;9.006;2023-03-01T02:41:53;-4.20;99.90
31263;DHT22;17892;52.080;9.006;2023-03-01T02:44:20;-4.30;99.90
31263;DHT22;17892;52.080;9.006;2023-03-01T02:46:49;-4.30;99.90
31263;DHT22;17892;52.080;9.006;2023-03-01T02:49:26;-4.30;99.90
31263;DHT22;17892;52.080;9.006;2023-03-01T02:57:20;-4.40;99.90
31263;DHT22;17892;52.080;9.006;2023-03-01T02:59:48;-4.40;99.90
31263;DHT22;17892;52.080;9.006;2023-03-01T03:02:27;-4.40;99.90
31263;DHT22;17892;52.080;9.006;2023-03-01T03:05:10;-4.40;99.90
31263;DHT22;17892;52.080;9.006;2023-03-01T03:07:43;-4.40;99.90
31263;DHT22;17892;52.080;9.006;2023-03-01T03:10:25;-4.40;99.90
31263;DHT22;17892;52.080;9.006;2023-03-01T03:12:58;-4.50;99.90
31263;DHT22;17892;52.080;9.006;2023-03-01T03:15:27;-4.50;99.90
31263;DHT22;17892;52.080;9.006;2023-03-01T03:17:55;-4.50;99.90
31263;DHT22;17892;52.080;9.006;2023-03-01T03:20:24;-4.50;99.90
31263;DHT22;17892;52.080;9.006;2023-03-01T03:22:53;-4.50;99.90
31263;DHT22;17892;52.080;9.006;2023-03-01T03:25:21;-4.50;99.90
31263;DHT22;17892;52.080;9.006;2023-03-01T03:27:48;-4.50;99.90
31263;DHT22;17892;52.080;9.006;2023-03-01T03:30:19;-4.50;99.90
31263;DHT22;17892;52.080;9.006;2023-03-01T03:32:47;-4.50;99.90
31263;DHT22;17892;52.080;9.006;2023-03-01T03:35:28;-4.60;99.90
31263;DHT22;17892;52.080;9.006;2023-03-01T03:37:59;-4.50;99.90
31263;DHT22;17892;52.080;9.006;2023-03-01T03:40:38;-4.60;99.90
31263;DHT22;17892;52.080;9.006;2023-03-01T03:43:07;-4.50;99.90
31263;DHT22;17892;52.080;9.006;2023-03-01T03:45:41;-4.50;99.90
31263;DHT22;17892;52.080;9.006;2023-03-01T03:48:08;-4.50;99.90
31263;DHT22;17892;52.080;9.006;2023-03-01T03:50:36;-4.60;99.90
31263;DHT22;17892;52.080;9.006;2023-03-01T03:53:05;-4.50;99.90
31263;DHT22;17892;52.080;9.006;2023-03-01T03:55:33;-4.60;99.90
31263;DHT22;17892;52.080;9.006;2023-03-01T03:58:01;-4.60;99.90
31263;DHT22;17892;52.080;9.006;2023-03-01T04:00:33;-4.60;99.90
31263;DHT22;17892;52.080;9.006;2023-03-01T04:03:01;-4.60;99.90
31263;DHT22;17892;52.080;9.006;2023-03-01T04:05:28;-4.50;99.90
31263;DHT22;17892;52.080;9.006;2023-03-01T04:07:54;-4.50;99.90
31263;DHT22;17892;52.080;9.006;2023-03-01T04:10:35;-4.40;99.90
31263;DHT22;17892;52.080;9.006;2023-03-01T04:13:05;-4.40;99.90
31263;DHT22;17892;52.080;9.006;2023-03-01T04:15:32;-4.40;99.90
31263;DHT22;17892;52.080;9.006;2023-03-01T04:17:59;-4.40;99.90
31263;DHT22;17892;52.080;9.006;2023-03-01T04:20:28;-4.40;99.90
31263;DHT22;17892;52.080;9.006;2023-03-01T04:25:54;-4.50;99.90
31263;DHT22;17892;52.080;9.006;2023-03-01T04:28:26;-4.50;99.90
31263;DHT22;17892;52.080;9.006;2023-03-01T04:30:53;-4.50;99.90
31263;DHT22;17892;52.080;9.006;2023-03-01T04:33:20;-4.50;99.90
31263;DHT22;17892;52.080;9.006;2023-03-01T04:35:46;-4.60;99.90
31263;DHT22;17892;52.080;9.006;2023-03-01T04:38:18;-4.60;99.90
31263;DHT22;17892;52.080;9.006;2023-03-01T04:40:44;-4.60;99.90
31263;DHT22;17892;52.080;9.006;2023-03-01T04:43:11;-4.60;99.90
31263;DHT22;17892;52.080;9.006;2023-03-01T04:45:40;-4.70;99.90
31263;DHT22;17892;52.080;9.006;2023-03-01T04:48:06;-4.70;99.90
31263;DHT22;17892;52.080;9.006;2023-03-01T04:50:32;-4.70;99.90
31263;DHT22;17892;52.080;9.006;2023-03-01T04:52:58;-4.70;99.90
31263;DHT22;17892;52.080;9.006;2023-03-01T04:55:25;-4.70;99.90
31263;DHT22;17892;52.080;9.006;2023-03-01T04:57:52;-4.70;99.90
31263;DHT22;17892;52.080;9.006;2023-03-01T05:00:19;-4.60;99.90
31263;DHT22;17892;52.080;9.006;2023-03-01T05:02:47;-4.60;99.90
31263;DHT22;17892;52.080;9.006;2023-03-01T05:05:14;-4.60;99.90
31263;DHT22;17892;52.080;9.006;2023-03-01T05:07:40;-4.60;99.90
31263;DHT22;17892;52.080;9.006;2023-03-01T05:10:06;-4.70;99.90
31263;DHT22;17892;52.080;9.006;2023-03-01T05:12:32;-4.70;99.90
31263;DHT22;17892;52.080;9.006;2023-03-01T05:14:58;-4.70;99.90
31263;DHT22;17892;52.080;9.006;2023-03-01T05:17:24;-4.70;99.90
31263;DHT22;17892;52.080;9.006;2023-03-01T05:19:50;-4.70;99.90
31263;DHT22;17892;52.080;9.006;2023-03-01T05:22:15;-4.70;99.90
31263;DHT22;17892;52.080;9.006;2023-03-01T05:24:41;-4.70;99.90
31263;DHT22;17892;52.080;9.006;2023-03-01T05:27:07;-4.70;99.90
31263;DHT22;17892;52.080;9.006;2023-03-01T05:29:33;-4.70;99.90
31263;DHT22;17892;52.080;9.006;2023-03-01T05:32:01;-4.70;99.90
31263;DHT22;17892;52.080;9.006;2023-03-01T05:34:33;-4.80;99.90
31263;DHT22;17892;52.080;9.006;2023-03-01T05:37:01;-4.80;99.90
31263;DHT22;17892;52.080;9.006;2023-03-01T05:39:28;-4.80;99.90
31263;DHT22;17892;52.080;9.006;2023-03-01T05:41:56;-4.80;99.90
31263;DHT22;17892;52.080;9.006;2023-03-01T05:44:24;-4.80;99.90
31263;DHT22;17892;52.080;9.006;2023-03-01T05:46:50;-4.80;99.90
31263;DHT22;17892;52.080;9.006;2023-03-01T05:49:17;-4.80;99.90
31263;DHT22;17892;52.080;9.006;2023-03-01T05:51:46;-4.90;99.90
31263;DHT22;17892;52.080;9.006;2023-03-01T05:54:15;-4.90;99.90
31263;DHT22;17892;52.080;9.006;2023-03-01T05:56:41;-4.90;99.90
31263;DHT22;17892;52.080;9.006;2023-03-01T05:59:07;-4.90;99.90
31263;DHT22;17892;52.080;9.006;2023-03-01T06:01:34;-5.00;99.90
31263;DHT22;17892;52.080;9.006;2023-03-01T06:04:00;-5.00;99.90
31263;DHT22;17892;52.080;9.006;2023-03-01T06:06:26;-5.00;99.90
31263;DHT22;17892;52.080;9.006;2023-03-01T06:08:53;-5.00;99.90
31263;DHT22;17892;52.080;9.006;2023-03-01T06:11:20;-5.10;99.90
31263;DHT22;17892;52.080;9.006;2023-03-01T06:13:46;-5.10;99.90
31263;DHT22;17892;52.080;9.006;2023-03-01T06:16:13;-5.10;99.90
31263;DHT22;17892;52.080;9.006;2023-03-01T06:18:39;-5.10;99.90
31263;DHT22;17892;52.080;9.006;2023-03-01T06:21:06;-5.10;99.90
31263;DHT22;17892;52.080;9.006;2023-03-01T06:23:32;-5.10;99.90
31263;DHT22;17892;52.080;9.006;2023-03-01T06:25:59;-5.10;99.90
31263;DHT22;17892;52.080;9.006;2023-03-01T06:28:25;-5.00;99.90
31263;DHT22;17892;52.080;9.006;2023-03-01T06:30:51;-5.00;99.90
31263;DHT22;17892;52.080;9.006;2023-03-01T06:33:18;-4.90;99.90
31263;DHT22;17892;52.080;9.006;2023-03-01T06:35:46;-4.90;99.90
31263;DHT22;17892;52.080;9.006;2023-03-01T06:38:12;-4.80;99.90
31263;DHT22;17892;52.080;9.006;2023-03-01T06:40:40;-4.80;99.90
31263;DHT22;17892;52.080;9.006;2023-03-01T06:43:06;-4.70;99.90
31263;DHT22;17892;52.080;9.006;2023-03-01T06:45:33;-4.70;99.90
31263;DHT22;17892;52.080;9.006;2023-03-01T06:48:05;-4.60;99.90
31263;DHT22;17892;52.080;9.006;2023-03-01T06:50:33;-4.50;99.90
31263;DHT22;17892;52.080;9.006;2023-03-01T06:52:59;-4.40;99.90
31263;DHT22;17892;52.080;9.006;2023-03-01T06:55:25;-4.30;99.90
31263;DHT22;17892;52.080;9.006;2023-03-01T06:58:09;-4.10;99.90
31263;DHT22;17892;52.080;9.006;2023-03-01T07:00:36;-3.90;99.90
31263;DHT22;17892;52.080;9.006;2023-03-01T07:03:02;-3.80;99.90
31263;DHT22;17892;52.080;9.006;2023-03-01T07:05:29;-3.50;99.90
31263;DHT22;17892;52.080;9.006;2023-03-01T07:07:55;-3.20;99.90
31263;DHT22;17892;52.080;9.006;2023-03-01T07:10:21;-2.80;99.90
31263;DHT22;17892;52.080;9.006;2023-03-01T07:12:47;-2.40;99.90
31263;DHT22;17892;52.080;9.006;2023-03-01T07:15:13;-2.00;99.90
31263;DHT22;17892;52.080;9.006;2023-03-01T07:17:40;-1.50;99.90
31263;DHT22;17892;52.080;9.006;2023-03-01T07:20:06;-1.10;99.90
31263;DHT22;17892;52.080;9.006;2023-03-01T07:22:32;-0.70;99.90
31263;DHT22;17892;52.080;9.006;2023-03-01T07:24:57;-0.30;99.90
31263;DHT22;17892;52.080;9.006;2023-03-01T07:27:23;0.10;99.90
31263;DHT22;17892;52.080;9.006;2023-03-01T07:29:49;0.50;99.90
31263;DHT22;17892;52.080;9.006;2023-03-01T07:32:14;0.90;99.90
31263;DHT22;17892;52.080;9.006;2023-03-01T07:34:41;1.40;99.90
31263;DHT22;17892;52.080;9.006;2023-03-01T07:37:07;1.80;99.90
31263;DHT22;17892;52.080;9.006;2023-03-01T07:39:32;2.30;99.90
31263;DHT22;17892;52.080;9.006;2023-03-01T07:41:58;2.70;99.90
31263;DHT22;17892;52.080;9.006;2023-03-01T07:44:24;3.20;99.90
31263;DHT22;17892;52.080;9.006;2023-03-01T07:46:50;3.70;99.90
31263;DHT22;17892;52.080;9.006;2023-03-01T07:49:17;4.10;99.90
31263;DHT22;17892;52.080;9.006;2023-03-01T07:51:43;4.60;99.90
31263;DHT22;17892;52.080;9.006;2023-03-01T07:54:09;5.00;99.90
31263;DHT22;17892;52.080;9.006;2023-03-01T07:56:35;5.40;99.90
31263;DHT22;17892;52.080;9.006;2023-03-01T07:59:00;5.80;99.90
31263;DHT22;17892;52.080;9.006;2023-03-01T08:01:26;6.10;99.90
31263;DHT22;17892;52.080;9.006;2023-03-01T08:03:52;6.50;99.90
31263;DHT22;17892;52.080;9.006;2023-03-01T08:06:18;6.80;99.90
31263;DHT22;17892;52.080;9.006;2023-03-01T08:08:44;7.10;99.90
31263;DHT22;17892;52.080;9.006;2023-03-01T08:11:12;7.50;99.90
31263;DHT22;17892;52.080;9.006;2023-03-01T08:13:39;7.80;99.90
31263;DHT22;17892;52.080;9.006;2023-03-01T08:16:10;8.00;99.90
31263;DHT22;17892;52.080;9.006;2023-03-01T08:18:37;8.40;99.90
31263;DHT22;17892;52.080;9.006;2023-03-01T08:21:08;8.60;99.90
31263;DHT22;17892;52.080;9.006;2023-03-01T08:23:35;8.70;99.90
31263;DHT22;17892;52.080;9.006;2023-03-01T08:26:20;8.90;99.90
31263;DHT22;17892;52.080;9.006;2023-03-01T08:28:48;9.10;99.90
31263;DHT22;17892;52.080;9.006;2023-03-01T08:31:17;9.20;99.90
31263;DHT22;17892;52.080;9.006;2023-03-01T08:33:49;9.30;99.90
31263;DHT22;17892;52.080;9.006;2023-03-01T08:36:27;9.50;99.90
31263;DHT22;17892;52.080;9.006;2023-03-01T08:38:54;9.60;99.90
31263;DHT22;17892;52.080;9.006;2023-03-01T08:41:20;9.80;99.90
31263;DHT22;17892;52.080;9.006;2023-03-01T08:43:46;10.00;99.90
31263;DHT22;17892;52.080;9.006;2023-03-01T08:46:12;10.20;99.90
31263;DHT22;17892;52.080;9.006;2023-03-01T08:48:38;10.40;99.90
31263;DHT22;17892;52.080;9.006;2023-03-01T08:51:17;10.60;99.90
31263;DHT22;17892;52.080;9.006;2023-03-01T08:53:44;10.80;99.90
31263;DHT22;17892;52.080;9.006;2023-03-01T08:56:10;11.00;99.90
31263;DHT22;17892;52.080;9.006;2023-03-01T08:58:37;11.30;99.90
31263;DHT22;17892;52.080;9.006;2023-03-01T09:01:08;11.50;99.90
31263;DHT22;17892;52.080;9.006;2023-03-01T09:03:35;11.70;99.90
31263;DHT22;17892;52.080;9.006;2023-03-01T09:06:02;11.90;99.90
31263;DHT22;17892;52.080;9.006;2023-03-01T09:08:30;12.00;99.90
31263;DHT22;17892;52.080;9.006;2023-03-01T09:10:56;12.10;99.90
31263;DHT22;17892;52.080;9.006;2023-03-01T09:13:22;12.30;99.90
31263;DHT22;17892;52.080;9.006;2023-03-01T09:15:52;12.40;99.90
31263;DHT22;17892;52.080;9.006;2023-03-01T09:18:18;12.50;99.00
31263;DHT22;17892;52.080;9.006;2023-03-01T09:20:43;12.50;99.90
31263;DHT22;17892;52.080;9.006;2023-03-01T09:23:09;12.50;99.90
31263;DHT22;17892;52.080;9.006;2023-03-01T09:25:36;12.50;99.60
31263;DHT22;17892;52.080;9.006;2023-03-01T09:28:01;12.60;99.90
31263;DHT22;17892;52.080;9.006;2023-03-01T09:30:27;12.60;99.90
31263;DHT22;17892;52.080;9.006;2023-03-01T09:32:53;12.70;99.90
31263;DHT22;17892;52.080;9.006;2023-03-01T09:35:18;12.60;99.40
31263;DHT22;17892;52.080;9.006;2023-03-01T09:37:45;12.60;99.90
31263;DHT22;17892;52.080;9.006;2023-03-01T09:40:15;12.60;99.90
31263;DHT22;17892;52.080;9.006;2023-03-01T09:42:56;12.60;99.90
31263;DHT22;17892;52.080;9.006;2023-03-01T09:45:29;12.70;97.70
31263;DHT22;17892;52.080;9.006;2023-03-01T09:48:00;12.70;98.80
31263;DHT22;17892;52.080;9.006;2023-03-01T09:50:30;12.70;97.30
31263;DHT22;17892;52.080;9.006;2023-03-01T09:53:02;12.70;96.60
31263;DHT22;17892;52.080;9.006;2023-03-01T09:55:44;12.70;95.30
31263;DHT22;17892;52.080;9.006;2023-03-01T09:58:41;12.70;76.90
31263;DHT22;17892;52.080;9.006;2023-03-01T10:01:40;12.50;72.90
31263;DHT22;17892;52.080;9.006;2023-03-01T10:09:58;12.20;75.70
31263;DHT22;17892;52.080;9.006;2023-03-01T10:12:29;12.20;90.80
31263;DHT22;17892;52.080;9.006;2023-03-01T10:15:11;12.10;77.10
31263;DHT22;17892;52.080;9.006;2023-03-01T10:17:57;11.90;91.30
31263;DHT22;17892;52.080;9.006;2023-03-01T10:23:40;11.90;85.10
31263;DHT22;17892;52.080;9.006;2023-03-01T10:29:05;12.10;98.70
31263;DHT22;17892;52.080;9.006;2023-03-01T10:31:40;12.30;91.40
31263;DHT22;17892;52.080;9.006;2023-03-01T10:34:30;12.50;99.90
31263;DHT22;17892;52.080;9.006;2023-03-01T10:37:01;12.70;85.30
31263;DHT22;17892;52.080;9.006;2023-03-01T10:39:58;12.60;92.30
31263;DHT22;17892;52.080;9.006;2023-03-01T10:42:47;12.70;88.10
31263;DHT22;17892;52.080;9.006;2023-03-01T10:48:20;12.40;67.00
31263;DHT22;17892;52.080;9.006;2023-03-01T10:50:51;12.20;64.30
31263;DHT22;17892;52.080;9.006;2023-03-01T10:53:41;11.80;68.00
31263;DHT22;17892;52.080;9.006;2023-03-01T10:56:10;11.70;74.40
31263;DHT22;17892;52.080;9.006;2023-03-01T10:58:38;11.60;80.70
31263;DHT22;17892;52.080;9.006;2023-03-01T11:01:25;11.30;78.00
31263;DHT22;17892;52.080;9.006;2023-03-01T11:06:34;11.20;72.80
31263;DHT22;17892;52.080;9.006;2023-03-01T11:09:19;11.00;74.80
31263;DHT22;17892;52.080;9.006;2023-03-01T11:11:52;10.90;66.60
31263;DHT22;17892;52.080;9.006;2023-03-01T11:14:22;11.10;92.30
31263;DHT22;17892;52.080;9.006;2023-03-01T11:17:03;11.20;91.10
31263;DHT22;17892;52.080;9.006;2023-03-01T11:19:30;11.30;79.30
31263;DHT22;17892;52.080;9.006;2023-03-01T11:24:49;11.60;92.40
31263;DHT22;17892;52.080;9.006;2023-03-01T11:27:18;11.60;66.70
31263;DHT22;17892;52.080;9.006;2023-03-01T11:30:05;11.70;93.50
31263;DHT22;17892;52.080;9.006;2023-03-01T11:36:01;11.80;71.40
31263;DHT22;17892;52.080;9.006;2023-03-01T11:38:45;11.80;69.10
31263;DHT22;17892;52.080;9.006;2023-03-01T11:41:18;12.00;74.40
31263;DHT22;17892;52.080;9.006;2023-03-01T11:43:55;12.10;69.00
31263;DHT22;17892;52.080;9.006;2023-03-01T11:52:35;12.40;91.70
31263;DHT22;17892;52.080;9.006;2023-03-01T11:55:30;12.70;91.30
31263;DHT22;17892;52.080;9.006;2023-03-01T11:58:18;12.90;73.70
31263;DHT22;17892;52.080;9.006;2023-03-01T12:09:48;13.10;61.60
31263;DHT22;17892;52.080;9.006;2023-03-01T12:12:47;12.90;74.30
31263;DHT22;17892;52.080;9.006;2023-03-01T12:21:18;12.90;97.20
31263;DHT22;17892;52.080;9.006;2023-03-01T12:35:22;13.40;96.80
31263;DHT22;17892;52.080;9.006;2023-03-01T12:38:24;13.50;88.60
31263;DHT22;17892;52.080;9.006;2023-03-01T12:49:57;13.70;86.50
31263;DHT22;17892;52.080;9.006;2023-03-01T12:55:08;13.80;90.30
31263;DHT22;17892;52.080;9.006;2023-03-01T12:57:56;13.90;96.10
31263;DHT22;17892;52.080;9.006;2023-03-01T13:00:39;14.10;92.20
31263;DHT22;17892;52.080;9.006;2023-03-01T13:06:19;14.30;94.70
31263;DHT22;17892;52.080;9.006;2023-03-01T13:08:58;14.30;91.40
31263;DHT22;17892;52.080;9.006;2023-03-01T13:11:36;14.30;91.60
31263;DHT22;17892;52.080;9.006;2023-03-01T13:16:46;14.30;88.60
31263;DHT22;17892;52.080;9.006;2023-03-01T13:19:28;14.20;90.00
31263;DHT22;17892;52.080;9.006;2023-03-01T13:21:55;14.10;88.10
31263;DHT22;17892;52.080;9.006;2023-03-01T13:24:41;14.10;92.10
31263;DHT22;17892;52.080;9.006;2023-03-01T13:29:50;14.00;96.60
31263;DHT22;17892;52.080;9.006;2023-03-01T13:32:29;14.10;77.70
31263;DHT22;17892;52.080;9.006;2023-03-01T13:35:00;14.10;95.40
31263;DHT22;17892;52.080;9.006;2023-03-01T13:37:44;14.20;95.50
31263;DHT22;17892;52.080;9.006;2023-03-01T13:42:49;14.20;96.00
31263;DHT22;17892;52.080;9.006;2023-03-01T13:47:58;14.30;94.20
31263;DHT22;17892;52.080;9.006;2023-03-01T13:50:29;14.30;84.70
31263;DHT22;17892;52.080;9.006;2023-03-01T13:53:05;14.10;79.30
31263;DHT22;17892;52.080;9.006;2023-03-01T13:55:40;13.90;78.80
31263;DHT22;17892;52.080;9.006;2023-03-01T13:58:43;13.70;80.10
31263;DHT22;17892;52.080;9.006;2023-03-01T14:01:24;13.40;81.40
31263;DHT22;17892;52.080;9.006;2023-03-01T14:03:52;12.90;66.20
31263;DHT22;17892;52.080;9.006;2023-03-01T14:06:31;12.40;76.10
31263;DHT22;17892;52.080;9.006;2023-03-01T14:09:27;11.90;73.00
31263;DHT22;17892;52.080;9.006;2023-03-01T14:14:51;10.90;87.70
31263;DHT22;17892;52.080;9.006;2023-03-01T14:19:59;10.10;88.00
31263;DHT22;17892;52.080;9.006;2023-03-01T14:22:28;9.80;90.50
31263;DHT22;17892;52.080;9.006;2023-03-01T14:25:06;9.60;92.20
31263;DHT22;17892;52.080;9.006;2023-03-01T14:27:43;9.30;89.50
31263;DHT22;17892;52.080;9.006;2023-03-01T14:30:23;9.20;97.60
31263;DHT22;17892;52.080;9.006;2023-03-01T14:32:54;9.30;85.60
31263;DHT22;17892;52.080;9.006;2023-03-01T14:35:25;9.40;99.90
31263;DHT22;17892;52.080;9.006;2023-03-01T14:37:52;9.50;99.60
31263;DHT22;17892;52.080;9.006;2023-03-01T14:40:34;9.50;96.90
31263;DHT22;17892;52.080;9.006;2023-03-01T14:43:08;9.40;81.00
31263;DHT22;17892;52.080;9.006;2023-03-01T14:45:35;9.40;99.00
31263;DHT22;17892;52.080;9.006;2023-03-01T14:48:03;9.40;99.90
31263;DHT22;17892;52.080;9.006;2023-03-01T14:50:32;9.40;99.00
31263;DHT22;17892;52.080;9.006;2023-03-01T14:53:02;9.60;98.30
31263;DHT22;17892;52.080;9.006;2023-03-01T14:55:35;9.70;97.60
31263;DHT22;17892;52.080;9.006;2023-03-01T14:58:05;9.70;70.30
31263;DHT22;17892;52.080;9.006;2023-03-01T15:00:35;9.60;85.10
31263;DHT22;17892;52.080;9.006;2023-03-01T15:03:12;9.50;91.60
31263;DHT22;17892;52.080;9.006;2023-03-01T15:05:43;9.30;90.10
31263;DHT22;17892;52.080;9.006;2023-03-01T15:08:18;9.10;84.50
31263;DHT22;17892;52.080;9.006;2023-03-01T15:13:43;8.80;93.10
31263;DHT22;17892;52.080;9.006;2023-03-01T15:16:21;8.80;99.50
31263;DHT22;17892;52.080;9.006;2023-03-01T15:21:21;9.10;90.80
31263;DHT22;17892;52.080;9.006;2023-03-01T15:26:56;9.70;84.10
31263;DHT22;17892;52.080;9.006;2023-03-01T15:29:29;10.00;99.80
31263;DHT22;17892;52.080;9.006;2023-03-01T15:32:06;10.20;92.40
31263;DHT22;17892;52.080;9.006;2023-03-01T15:34:50;10.40;99.10
31263;DHT22;17892;52.080;9.006;2023-03-01T15:37:39;10.40;99.90
31263;DHT22;17892;52.080;9.006;2023-03-01T15:40:28;10.70;77.00
31263;DHT22;17892;52.080;9.006;2023-03-01T15:43:02;10.90;81.80
31263;DHT22;17892;52.080;9.006;2023-03-01T15:45:31;10.90;92.10
31263;DHT22;17892;52.080;9.006;2023-03-01T15:48:04;11.00;97.40
31263;DHT22;17892;52.080;9.006;2023-03-01T15:50:39;11.00;95.30
31263;DHT22;17892;52.080;9.006;2023-03-01T15:53:09;11.10;98.20
31263;DHT22;17892;52.080;9.006;2023-03-01T15:55:37;11.10;95.90
31263;DHT22;17892;52.080;9.006;2023-03-01T15:58:25;11.00;98.00
31263;DHT22;17892;52.080;9.006;2023-03-01T16:00:52;11.00;88.20
31263;DHT22;17892;52.080;9.006;2023-03-01T16:03:22;10.90;98.00
31263;DHT22;17892;52.080;9.006;2023-03-01T16:05:49;10.90;88.50
31263;DHT22;17892;52.080;9.006;2023-03-01T16:08:16;10.80;98.30
31263;DHT22;17892;52.080;9.006;2023-03-01T16:10:43;10.80;96.00
31263;DHT22;17892;52.080;9.006;2023-03-01T16:13:12;10.70;96.00
31263;DHT22;17892;52.080;9.006;2023-03-01T16:15:38;10.60;94.80
31263;DHT22;17892;52.080;9.006;2023-03-01T16:18:05;10.50;97.50
31263;DHT22;17892;52.080;9.006;2023-03-01T16:20:32;10.40;91.70
31263;DHT22;17892;52.080;9.006;2023-03-01T16:22:59;10.30;92.40
31263;DHT22;17892;52.080;9.006;2023-03-01T16:25:34;10.10;92.50
31263;DHT22;17892;52.080;9.006;2023-03-01T16:28:00;9.80;90.80
31263;DHT22;17892;52.080;9.006;2023-03-01T16:30:30;9.60;90.30
31263;DHT22;17892;52.080;9.006;2023-03-01T16:32:56;9.30;90.50
31263;DHT22;17892;52.080;9.006;2023-03-01T16:35:22;9.00;90.30
31263;DHT22;17892;52.080;9.006;2023-03-01T16:37:48;8.70;88.40
31263;DHT22;17892;52.080;9.006;2023-03-01T16:40:26;8.50;90.70
31263;DHT22;17892;52.080;9.006;2023-03-01T16:42:54;8.20;88.50
31263;DHT22;17892;52.080;9.006;2023-03-01T16:45:25;7.90;91.00
31263;DHT22;17892;52.080;9.006;2023-03-01T16:47:52;7.70;93.80
31263;DHT22;17892;52.080;9.006;2023-03-01T16:50:18;7.50;92.50
31263;DHT22;17892;52.080;9.006;2023-03-01T16:52:44;7.30;92.90
31263;DHT22;17892;52.080;9.006;2023-03-01T16:55:10;7.10;93.00
31263;DHT22;17892;52.080;9.006;2023-03-01T16:57:39;6.90;94.40
31263;DHT22;17892;52.080;9.006;2023-03-01T17:00:07;6.70;94.80
31263;DHT22;17892;52.080;9.006;2023-03-01T17:02:38;6.60;95.80
31263;DHT22;17892;52.080;9.006;2023-03-01T17:05:05;6.40;95.80
31263;DHT22;17892;52.080;9.006;2023-03-01T17:07:33;6.30;95.90
31263;DHT22;17892;52.080;9.006;2023-03-01T17:10:04;6.20;95.90
31263;DHT22;17892;52.080;9.006;2023-03-01T17:12:31;6.00;93.80
31263;DHT22;17892;52.080;9.006;2023-03-01T17:14:58;5.90;97.30
31263;DHT22;17892;52.080;9.006;2023-03-01T17:17:23;5.80;96.30
31263;DHT22;17892;52.080;9.006;2023-03-01T17:19:49;5.70;96.50
31263;DHT22;17892;52.080;9.006;2023-03-01T17:22:15;5.50;96.80
31263;DHT22;17892;52.080;9.006;2023-03-01T17:24:43;5.40;97.60
31263;DHT22;17892;52.080;9.006;2023-03-01T17:27:09;5.30;95.70
31263;DHT22;17892;52.080;9.006;2023-03-01T17:29:37;5.30;97.10
31263;DHT22;17892;52.080;9.006;2023-03-01T17:32:03;5.20;97.50
31263;DHT22;17892;52.080;9.006;2023-03-01T17:34:31;5.10;96.10
31263;DHT22;17892;52.080;9.006;2023-03-01T17:36:57;5.10;98.20
31263;DHT22;17892;52.080;9.006;2023-03-01T17:39:23;5.00;97.50
31263;DHT22;17892;52.080;9.006;2023-03-01T17:41:56;5.00;98.40
31263;DHT22;17892;52.080;9.006;2023-03-01T17:44:22;5.00;98.10
31263;DHT22;17892;52.080;9.006;2023-03-01T17:46:48;5.00;98.60
31263;DHT22;17892;52.080;9.006;2023-03-01T17:49:13;4.90;99.20